sensor_id;sensor_type;location;lat;lon;timestamp;P1;durP1;ratioP1;P2;durP2;ratioP2
25237;SDS011;13185;50.872;5.306;2023-09-30T00:00:57;3.15;;;2.13;;
25237;SDS011;13185;50.872;5.306;2023-09-30T00:03:23;6.18;;;2.15;;
25237;SDS011;13185;50.872;5.306;2023-09-30T00:05:48;4.80;;;2.45;;
25237;SDS011;13185;50.872;5.306;2023-09-30T00:08:14;4.10;;;2.25;;
25237;SDS011;13185;50.872;5.306;2023-09-30T00:10:40;8.07;;;2.40;;
25237;SDS011;13185;50.872;5.306;2023-09-30T00:13:05;3.92;;;2.40;;
25237;SDS011;13185;50.872;5.306;2023-09-30T00:15:34;5.55;;;2.13;;
25237;SDS011;13185;50.872;5.306;2023-09-30T00:18:00;3.22;;;2.00;;
25237;SDS011;13185;50.872;5.306;2023-09-30T00:20:26;2.88;;;1.95;;
25237;SDS011;13185;50.872;5.306;2023-09-30T00:22:52;4.18;;;2.50;;
25237;SDS011;13185;50.872;5.306;2023-09-30T00:25:18;4.30;;;2.90;;
25237;SDS011;13185;50.872;5.306;2023-09-30T00:27:44;6.28;;;2.17;;
25237;SDS011;13185;50.872;5.306;2023-09-30T00:30:09;4.88;;;2.40;;
25237;SDS011;13185;50.872;5.306;2023-09-30T00:32:35;3.30;;;2.28;;
25237;SDS011;13185;50.872;5.306;2023-09-30T00:35:01;4.75;;;2.13;;
25237;SDS011;13185;50.872;5.306;2023-09-30T00:37:28;4.38;;;2.90;;
25237;SDS011;13185;50.872;5.306;2023-09-30T00:39:53;3.78;;;2.38;;
25237;SDS011;13185;50.872;5.306;2023-09-30T00:42:19;4.25;;;2.20;;
25237;SDS011;13185;50.872;5.306;2023-09-30T00:44:46;4.15;;;2.03;;
25237;SDS011;13185;50.872;5.306;2023-09-30T00:47:12;5.60;;;2.08;;
25237;SDS011;13185;50.872;5.306;2023-09-30T00:49:40;6.45;;;2.65;;
25237;SDS011;13185;50.872;5.306;2023-09-30T00:52:08;3.20;;;1.90;;
25237;SDS011;13185;50.872;5.306;2023-09-30T00:54:34;6.43;;;3.17;;
25237;SDS011;13185;50.872;5.306;2023-09-30T00:57:03;4.13;;;2.45;;
25237;SDS011;13185;50.872;5.306;2023-09-30T00:59:30;4.00;;;2.30;;
25237;SDS011;13185;50.872;5.306;2023-09-30T01:01:58;8.90;;;2.50;;
25237;SDS011;13185;50.872;5.306;2023-09-30T01:04:26;3.88;;;2.53;;
25237;SDS011;13185;50.872;5.306;2023-09-30T01:06:52;4.53;;;2.40;;
25237;SDS011;13185;50.872;5.306;2023-09-30T01:09:18;7.07;;;2.53;;
25237;SDS011;13185;50.872;5.306;2023-09-30T01:11:45;6.40;;;2.47;;
25237;SDS011;13185;50.872;5.306;2023-09-30T01:14:32;6.78;;;3.70;;
25237;SDS011;13185;50.872;5.306;2023-09-30T01:16:59;6.40;;;2.22;;
25237;SDS011;13185;50.872;5.306;2023-09-30T01:19:25;6.93;;;2.67;;
25237;SDS011;13185;50.872;5.306;2023-09-30T01:21:52;9.85;;;2.20;;
25237;SDS011;13185;50.872;5.306;2023-09-30T01:26:50;2.13;;;1.85;;
25237;SDS011;13185;50.872;5.306;2023-09-30T01:29:15;3.78;;;2.60;;
25237;SDS011;13185;50.872;5.306;2023-09-30T01:31:43;5.10;;;2.80;;
25237;SDS011;13185;50.872;5.306;2023-09-30T01:34:13;3.13;;;2.38;;
25237;SDS011;13185;50.872;5.306;2023-09-30T01:36:40;3.95;;;2.30;;
25237;SDS011;13185;50.872;5.306;2023-09-30T01:39:12;4.13;;;2.65;;
25237;SDS011;13185;50.872;5.306;2023-09-30T01:41:39;6.78;;;2.63;;
25237;SDS011;13185;50.872;5.306;2023-09-30T01:44:06;4.05;;;2.28;;
25237;SDS011;13185;50.872;5.306;2023-09-30T01:46:32;4.70;;;2.42;;
25237;SDS011;13185;50.872;5.306;2023-09-30T01:48:59;4.72;;;2.47;;
25237;SDS011;13185;50.872;5.306;2023-09-30T01:51:25;4.85;;;2.15;;
25237;SDS011;13185;50.872;5.306;2023-09-30T01:53:50;5.20;;;2.47;;
25237;SDS011;13185;50.872;5.306;2023-09-30T01:56:16;9.63;;;2.67;;
25237;SDS011;13185;50.872;5.306;2023-09-30T01:58:41;6.75;;;2.60;;
25237;SDS011;13185;50.872;5.306;2023-09-30T02:01:08;7.35;;;2.60;;
25237;SDS011;13185;50.872;5.306;2023-09-30T02:03:34;7.93;;;2.63;;
25237;SDS011;13185;50.872;5.306;2023-09-30T02:05:59;9.15;;;2.70;;
25237;SDS011;13185;50.872;5.306;2023-09-30T02:08:25;5.28;;;2.72;;
25237;SDS011;13185;50.872;5.306;2023-09-30T02:10:50;9.15;;;2.75;;
25237;SDS011;13185;50.872;5.306;2023-09-30T02:13:18;5.18;;;2.85;;
25237;SDS011;13185;50.872;5.306;2023-09-30T02:15:43;4.13;;;2.85;;
25237;SDS011;13185;50.872;5.306;2023-09-30T02:18:09;6.85;;;3.00;;
25237;SDS011;13185;50.872;5.306;2023-09-30T02:20:35;7.50;;;2.70;;
25237;SDS011;13185;50.872;5.306;2023-09-30T02:23:08;7.80;;;2.80;;
25237;SDS011;13185;50.872;5.306;2023-09-30T02:25:39;6.00;;;2.90;;
25237;SDS011;13185;50.872;5.306;2023-09-30T02:28:04;3.83;;;2.47;;
25237;SDS011;13185;50.872;5.306;2023-09-30T02:30:31;6.65;;;2.53;;
25237;SDS011;13185;50.872;5.306;2023-09-30T02:32:58;4.90;;;2.65;;
25237;SDS011;13185;50.872;5.306;2023-09-30T02:35:25;7.38;;;3.10;;
25237;SDS011;13185;50.872;5.306;2023-09-30T02:37:51;7.85;;;2.40;;
25237;SDS011;13185;50.872;5.306;2023-09-30T02:40:17;3.20;;;2.53;;
25237;SDS011;13185;50.872;5.306;2023-09-30T02:42:44;4.95;;;2.55;;
25237;SDS011;13185;50.872;5.306;2023-09-30T02:45:10;4.85;;;2.15;;
25237;SDS011;13185;50.872;5.306;2023-09-30T02:47:37;7.32;;;3.00;;
25237;SDS011;13185;50.872;5.306;2023-09-30T02:50:07;4.32;;;2.30;;
25237;SDS011;13185;50.872;5.306;2023-09-30T02:52:33;4.90;;;2.90;;
25237;SDS011;13185;50.872;5.306;2023-09-30T02:55:02;4.38;;;2.65;;
25237;SDS011;13185;50.872;5.306;2023-09-30T02:57:28;5.78;;;3.00;;
25237;SDS011;13185;50.872;5.306;2023-09-30T02:59:53;4.80;;;2.88;;
25237;SDS011;13185;50.872;5.306;2023-09-30T03:02:19;4.13;;;2.90;;
25237;SDS011;13185;50.872;5.306;2023-09-30T03:04:49;6.20;;;2.55;;
25237;SDS011;13185;50.872;5.306;2023-09-30T03:07:17;5.78;;;3.45;;
25237;SDS011;13185;50.872;5.306;2023-09-30T03:09:44;4.13;;;2.60;;
25237;SDS011;13185;50.872;5.306;2023-09-30T03:12:10;6.50;;;2.47;;
25237;SDS011;13185;50.872;5.306;2023-09-30T03:14:35;6.82;;;3.00;;
25237;SDS011;13185;50.872;5.306;2023-09-30T03:17:00;4.40;;;2.67;;
25237;SDS011;13185;50.872;5.306;2023-09-30T03:19:26;7.25;;;2.60;;
25237;SDS011;13185;50.872;5.306;2023-09-30T03:21:51;4.43;;;2.20;;
25237;SDS011;13185;50.872;5.306;2023-09-30T03:24:17;8.05;;;3.15;;
25237;SDS011;13185;50.872;5.306;2023-09-30T03:26:42;6.50;;;2.67;;
25237;SDS011;13185;50.872;5.306;2023-09-30T03:29:09;8.45;;;2.65;;
25237;SDS011;13185;50.872;5.306;2023-09-30T03:31:35;7.20;;;2.72;;
25237;SDS011;13185;50.872;5.306;2023-09-30T03:34:04;5.80;;;2.75;;
25237;SDS011;13185;50.872;5.306;2023-09-30T03:36:30;4.95;;;2.55;;
25237;SDS011;13185;50.872;5.306;2023-09-30T03:38:56;5.13;;;2.17;;
25237;SDS011;13185;50.872;5.306;2023-09-30T03:41:24;5.38;;;2.38;;
25237;SDS011;13185;50.872;5.306;2023-09-30T03:43:50;7.10;;;2.97;;
25237;SDS011;13185;50.872;5.306;2023-09-30T03:46:16;5.70;;;2.58;;
25237;SDS011;13185;50.872;5.306;2023-09-30T03:48:42;6.20;;;2.78;;
25237;SDS011;13185;50.872;5.306;2023-09-30T03:51:10;5.13;;;2.97;;
25237;SDS011;13185;50.872;5.306;2023-09-30T03:53:43;4.03;;;2.60;;
25237;SDS011;13185;50.872;5.306;2023-09-30T03:56:10;6.60;;;2.75;;
25237;SDS011;13185;50.872;5.306;2023-09-30T03:58:40;6.63;;;2.40;;
25237;SDS011;13185;50.872;5.306;2023-09-30T04:01:07;6.35;;;2.60;;
25237;SDS011;13185;50.872;5.306;2023-09-30T04:03:33;6.82;;;2.85;;
25237;SDS011;13185;50.872;5.306;2023-09-30T04:06:00;7.32;;;2.92;;
25237;SDS011;13185;50.872;5.306;2023-09-30T04:08:28;4.80;;;2.65;;
25237;SDS011;13185;50.872;5.306;2023-09-30T04:10:54;5.32;;;3.08;;
25237;SDS011;13185;50.872;5.306;2023-09-30T04:13:19;4.93;;;2.45;;
25237;SDS011;13185;50.872;5.306;2023-09-30T04:15:46;4.28;;;2.30;;
25237;SDS011;13185;50.872;5.306;2023-09-30T04:18:12;11.00;;;2.95;;
25237;SDS011;13185;50.872;5.306;2023-09-30T04:20:38;9.57;;;3.00;;
25237;SDS011;13185;50.872;5.306;2023-09-30T04:23:05;6.95;;;2.60;;
25237;SDS011;13185;50.872;5.306;2023-09-30T04:25:35;8.13;;;2.80;;
25237;SDS011;13185;50.872;5.306;2023-09-30T04:28:01;6.03;;;2.70;;
25237;SDS011;13185;50.872;5.306;2023-09-30T04:30:27;5.30;;;2.95;;
25237;SDS011;13185;50.872;5.306;2023-09-30T04:32:53;6.03;;;2.92;;
25237;SDS011;13185;50.872;5.306;2023-09-30T04:35:19;6.80;;;2.70;;
25237;SDS011;13185;50.872;5.306;2023-09-30T04:37:44;7.68;;;3.00;;
25237;SDS011;13185;50.872;5.306;2023-09-30T04:40:10;9.43;;;3.20;;
25237;SDS011;13185;50.872;5.306;2023-09-30T04:42:45;4.65;;;2.83;;
25237;SDS011;13185;50.872;5.306;2023-09-30T04:45:12;9.10;;;3.47;;
25237;SDS011;13185;50.872;5.306;2023-09-30T04:47:41;4.43;;;2.78;;
25237;SDS011;13185;50.872;5.306;2023-09-30T04:50:09;6.80;;;3.20;;
25237;SDS011;13185;50.872;5.306;2023-09-30T04:52:36;6.22;;;3.20;;
25237;SDS011;13185;50.872;5.306;2023-09-30T04:55:04;6.30;;;3.20;;
25237;SDS011;13185;50.872;5.306;2023-09-30T04:57:30;6.18;;;3.67;;
25237;SDS011;13185;50.872;5.306;2023-09-30T04:59:56;9.02;;;3.40;;
25237;SDS011;13185;50.872;5.306;2023-09-30T05:02:23;6.07;;;3.47;;
25237;SDS011;13185;50.872;5.306;2023-09-30T05:04:49;5.90;;;3.25;;
25237;SDS011;13185;50.872;5.306;2023-09-30T05:07:14;7.57;;;3.30;;
25237;SDS011;13185;50.872;5.306;2023-09-30T05:09:40;5.32;;;3.20;;
25237;SDS011;13185;50.872;5.306;2023-09-30T05:12:06;7.70;;;3.75;;
25237;SDS011;13185;50.872;5.306;2023-09-30T05:14:32;5.05;;;2.97;;
25237;SDS011;13185;50.872;5.306;2023-09-30T05:16:58;7.07;;;3.03;;
25237;SDS011;13185;50.872;5.306;2023-09-30T05:19:24;7.03;;;3.88;;
25237;SDS011;13185;50.872;5.306;2023-09-30T05:21:49;4.88;;;2.95;;
25237;SDS011;13185;50.872;5.306;2023-09-30T05:24:15;3.97;;;3.20;;
25237;SDS011;13185;50.872;5.306;2023-09-30T05:26:44;5.90;;;3.97;;
25237;SDS011;13185;50.872;5.306;2023-09-30T05:29:10;6.75;;;3.72;;
25237;SDS011;13185;50.872;5.306;2023-09-30T05:31:36;7.22;;;4.38;;
25237;SDS011;13185;50.872;5.306;2023-09-30T05:34:02;5.78;;;4.45;;
25237;SDS011;13185;50.872;5.306;2023-09-30T05:36:27;6.57;;;3.72;;
25237;SDS011;13185;50.872;5.306;2023-09-30T05:38:54;5.75;;;3.60;;
25237;SDS011;13185;50.872;5.306;2023-09-30T05:41:20;7.38;;;4.50;;
25237;SDS011;13185;50.872;5.306;2023-09-30T05:43:46;7.22;;;4.38;;
25237;SDS011;13185;50.872;5.306;2023-09-30T05:46:12;7.00;;;4.40;;
25237;SDS011;13185;50.872;5.306;2023-09-30T05:48:38;10.15;;;4.72;;
25237;SDS011;13185;50.872;5.306;2023-09-30T05:51:04;8.90;;;4.85;;
25237;SDS011;13185;50.872;5.306;2023-09-30T05:53:31;7.68;;;5.20;;
25237;SDS011;13185;50.872;5.306;2023-09-30T05:55:58;7.80;;;4.55;;
25237;SDS011;13185;50.872;5.306;2023-09-30T05:58:24;7.65;;;5.05;;
25237;SDS011;13185;50.872;5.306;2023-09-30T06:00:51;11.65;;;7.15;;
25237;SDS011;13185;50.872;5.306;2023-09-30T06:03:18;12.00;;;6.80;;
25237;SDS011;13185;50.872;5.306;2023-09-30T06:05:46;11.88;;;7.72;;
25237;SDS011;13185;50.872;5.306;2023-09-30T06:08:12;9.25;;;7.13;;
25237;SDS011;13185;50.872;5.306;2023-09-30T06:10:41;10.18;;;7.45;;
25237;SDS011;13185;50.872;5.306;2023-09-30T06:13:10;11.60;;;7.82;;
25237;SDS011;13185;50.872;5.306;2023-09-30T06:15:39;9.30;;;7.18;;
25237;SDS011;13185;50.872;5.306;2023-09-30T06:18:06;13.80;;;8.07;;
25237;SDS011;13185;50.872;5.306;2023-09-30T06:20:32;12.30;;;8.65;;
25237;SDS011;13185;50.872;5.306;2023-09-30T06:22:58;13.68;;;8.93;;
25237;SDS011;13185;50.872;5.306;2023-09-30T06:25:25;13.05;;;9.50;;
25237;SDS011;13185;50.872;5.306;2023-09-30T06:27:52;16.30;;;9.50;;
25237;SDS011;13185;50.872;5.306;2023-09-30T06:30:20;15.80;;;9.98;;
25237;SDS011;13185;50.872;5.306;2023-09-30T06:32:46;13.43;;;9.15;;
25237;SDS011;13185;50.872;5.306;2023-09-30T06:35:12;15.80;;;9.85;;
25237;SDS011;13185;50.872;5.306;2023-09-30T06:37:41;15.52;;;9.25;;
25237;SDS011;13185;50.872;5.306;2023-09-30T06:40:08;15.95;;;9.73;;
25237;SDS011;13185;50.872;5.306;2023-09-30T06:42:37;15.73;;;10.40;;
25237;SDS011;13185;50.872;5.306;2023-09-30T06:45:05;18.88;;;10.75;;
25237;SDS011;13185;50.872;5.306;2023-09-30T06:47:34;24.48;;;10.68;;
25237;SDS011;13185;50.872;5.306;2023-09-30T06:50:02;27.58;;;12.32;;
25237;SDS011;13185;50.872;5.306;2023-09-30T06:52:35;22.52;;;12.05;;
25237;SDS011;13185;50.872;5.306;2023-09-30T06:55:03;17.92;;;10.90;;
25237;SDS011;13185;50.872;5.306;2023-09-30T06:57:31;19.58;;;12.30;;
25237;SDS011;13185;50.872;5.306;2023-09-30T06:59:57;19.23;;;12.10;;
25237;SDS011;13185;50.872;5.306;2023-09-30T07:02:23;20.60;;;11.35;;
25237;SDS011;13185;50.872;5.306;2023-09-30T07:04:49;18.60;;;12.73;;
25237;SDS011;13185;50.872;5.306;2023-09-30T07:07:14;18.17;;;11.57;;
25237;SDS011;13185;50.872;5.306;2023-09-30T07:09:42;20.52;;;11.65;;
25237;SDS011;13185;50.872;5.306;2023-09-30T07:12:09;20.42;;;11.88;;
25237;SDS011;13185;50.872;5.306;2023-09-30T07:14:34;23.00;;;12.20;;
25237;SDS011;13185;50.872;5.306;2023-09-30T07:16:59;16.15;;;11.45;;
25237;SDS011;13185;50.872;5.306;2023-09-30T07:19:25;19.92;;;12.10;;
25237;SDS011;13185;50.872;5.306;2023-09-30T07:21:51;20.92;;;12.32;;
25237;SDS011;13185;50.872;5.306;2023-09-30T07:24:16;26.42;;;11.85;;
25237;SDS011;13185;50.872;5.306;2023-09-30T07:26:41;17.13;;;11.77;;
25237;SDS011;13185;50.872;5.306;2023-09-30T07:29:08;17.00;;;11.35;;
25237;SDS011;13185;50.872;5.306;2023-09-30T07:31:35;17.48;;;10.90;;
25237;SDS011;13185;50.872;5.306;2023-09-30T07:34:01;19.15;;;12.27;;
25237;SDS011;13185;50.872;5.306;2023-09-30T07:36:27;21.23;;;12.38;;
25237;SDS011;13185;50.872;5.306;2023-09-30T07:38:53;23.88;;;13.10;;
25237;SDS011;13185;50.872;5.306;2023-09-30T07:41:19;19.77;;;12.32;;
25237;SDS011;13185;50.872;5.306;2023-09-30T07:43:44;21.98;;;13.43;;
25237;SDS011;13185;50.872;5.306;2023-09-30T07:46:10;20.25;;;13.18;;
25237;SDS011;13185;50.872;5.306;2023-09-30T07:48:36;23.45;;;14.30;;
25237;SDS011;13185;50.872;5.306;2023-09-30T07:51:01;26.83;;;14.20;;
25237;SDS011;13185;50.872;5.306;2023-09-30T07:53:27;30.67;;;14.65;;
25237;SDS011;13185;50.872;5.306;2023-09-30T07:55:54;27.92;;;14.07;;
25237;SDS011;13185;50.872;5.306;2023-09-30T07:58:19;25.00;;;14.70;;
25237;SDS011;13185;50.872;5.306;2023-09-30T08:00:45;22.30;;;14.20;;
25237;SDS011;13185;50.872;5.306;2023-09-30T08:03:11;25.98;;;15.63;;
25237;SDS011;13185;50.872;5.306;2023-09-30T08:05:37;27.02;;;15.93;;
25237;SDS011;13185;50.872;5.306;2023-09-30T08:08:03;25.33;;;15.57;;
25237;SDS011;13185;50.872;5.306;2023-09-30T08:10:29;31.75;;;15.45;;
25237;SDS011;13185;50.872;5.306;2023-09-30T08:12:57;28.13;;;15.70;;
25237;SDS011;13185;50.872;5.306;2023-09-30T08:15:24;26.40;;;14.38;;
25237;SDS011;13185;50.872;5.306;2023-09-30T08:17:50;31.88;;;16.35;;
25237;SDS011;13185;50.872;5.306;2023-09-30T08:20:15;27.92;;;15.55;;
25237;SDS011;13185;50.872;5.306;2023-09-30T08:22:41;31.52;;;15.38;;
25237;SDS011;13185;50.872;5.306;2023-09-30T08:25:07;27.13;;;14.18;;
25237;SDS011;13185;50.872;5.306;2023-09-30T08:27:33;24.52;;;14.57;;
25237;SDS011;13185;50.872;5.306;2023-09-30T08:29:59;24.15;;;13.68;;
25237;SDS011;13185;50.872;5.306;2023-09-30T08:32:25;21.63;;;13.68;;
25237;SDS011;13185;50.872;5.306;2023-09-30T08:34:50;25.05;;;14.40;;
25237;SDS011;13185;50.872;5.306;2023-09-30T08:37:16;21.48;;;13.80;;
25237;SDS011;13185;50.872;5.306;2023-09-30T08:39:41;20.23;;;13.00;;
25237;SDS011;13185;50.872;5.306;2023-09-30T08:42:11;22.65;;;12.15;;
25237;SDS011;13185;50.872;5.306;2023-09-30T08:44:37;21.08;;;12.68;;
25237;SDS011;13185;50.872;5.306;2023-09-30T08:47:06;17.92;;;11.10;;
25237;SDS011;13185;50.872;5.306;2023-09-30T08:49:35;15.85;;;10.57;;
25237;SDS011;13185;50.872;5.306;2023-09-30T08:52:05;16.52;;;11.32;;
25237;SDS011;13185;50.872;5.306;2023-09-30T08:54:31;13.93;;;10.30;;
25237;SDS011;13185;50.872;5.306;2023-09-30T08:56:57;19.13;;;11.68;;
25237;SDS011;13185;50.872;5.306;2023-09-30T08:59:24;15.48;;;10.57;;
25237;SDS011;13185;50.872;5.306;2023-09-30T09:01:50;20.30;;;12.27;;
25237;SDS011;13185;50.872;5.306;2023-09-30T09:04:17;17.17;;;11.50;;
25237;SDS011;13185;50.872;5.306;2023-09-30T09:06:42;16.88;;;11.13;;
25237;SDS011;13185;50.872;5.306;2023-09-30T09:09:15;16.10;;;10.90;;
25237;SDS011;13185;50.872;5.306;2023-09-30T09:11:42;16.58;;;10.30;;
25237;SDS011;13185;50.872;5.306;2023-09-30T09:14:11;15.35;;;10.25;;
25237;SDS011;13185;50.872;5.306;2023-09-30T09:16:47;14.57;;;10.20;;
25237;SDS011;13185;50.872;5.306;2023-09-30T09:19:17;13.55;;;9.57;;
25237;SDS011;13185;50.872;5.306;2023-09-30T09:21:56;14.65;;;10.18;;
25237;SDS011;13185;50.872;5.306;2023-09-30T09:24:31;16.15;;;10.73;;
25237;SDS011;13185;50.872;5.306;2023-09-30T09:27:13;14.52;;;9.70;;
25237;SDS011;13185;50.872;5.306;2023-09-30T09:29:42;13.30;;;9.23;;
25237;SDS011;13185;50.872;5.306;2023-09-30T09:32:10;16.10;;;9.60;;
25237;SDS011;13185;50.872;5.306;2023-09-30T09:34:37;15.25;;;9.88;;
25237;SDS011;13185;50.872;5.306;2023-09-30T09:37:16;14.35;;;9.50;;
25237;SDS011;13185;50.872;5.306;2023-09-30T09:39:53;14.93;;;9.20;;
25237;SDS011;13185;50.872;5.306;2023-09-30T09:42:30;15.63;;;9.93;;
25237;SDS011;13185;50.872;5.306;2023-09-30T09:45:00;15.18;;;9.32;;
25237;SDS011;13185;50.872;5.306;2023-09-30T09:47:29;15.77;;;9.90;;
25237;SDS011;13185;50.872;5.306;2023-09-30T09:49:56;16.42;;;10.60;;
25237;SDS011;13185;50.872;5.306;2023-09-30T09:52:23;16.73;;;10.85;;
25237;SDS011;13185;50.872;5.306;2023-09-30T09:54:50;14.93;;;9.05;;
25237;SDS011;13185;50.872;5.306;2023-09-30T09:57:16;18.15;;;9.80;;
25237;SDS011;13185;50.872;5.306;2023-09-30T09:59:45;16.25;;;10.27;;
25237;SDS011;13185;50.872;5.306;2023-09-30T10:02:16;14.55;;;9.95;;
25237;SDS011;13185;50.872;5.306;2023-09-30T10:04:43;13.10;;;8.93;;
25237;SDS011;13185;50.872;5.306;2023-09-30T10:07:19;10.68;;;7.80;;
25237;SDS011;13185;50.872;5.306;2023-09-30T10:09:47;11.90;;;7.70;;
25237;SDS011;13185;50.872;5.306;2023-09-30T10:12:16;9.57;;;7.00;;
25237;SDS011;13185;50.872;5.306;2023-09-30T10:14:43;15.00;;;8.15;;
25237;SDS011;13185;50.872;5.306;2023-09-30T10:17:09;11.80;;;7.72;;
25237;SDS011;13185;50.872;5.306;2023-09-30T10:19:35;11.73;;;7.72;;
25237;SDS011;13185;50.872;5.306;2023-09-30T10:24:42;8.73;;;7.15;;
25237;SDS011;13185;50.872;5.306;2023-09-30T10:35:15;9.65;;;6.78;;
25237;SDS011;13185;50.872;5.306;2023-09-30T10:37:42;10.30;;;6.57;;
25237;SDS011;13185;50.872;5.306;2023-09-30T10:40:09;11.00;;;7.32;;
25237;SDS011;13185;50.872;5.306;2023-09-30T10:42:48;9.55;;;7.30;;
25237;SDS011;13185;50.872;5.306;2023-09-30T10:50:57;9.93;;;7.30;;
25237;SDS011;13185;50.872;5.306;2023-09-30T10:53:25;9.18;;;6.80;;
25237;SDS011;13185;50.872;5.306;2023-09-30T10:55:59;9.35;;;6.55;;
25237;SDS011;13185;50.872;5.306;2023-09-30T11:01:06;11.20;;;7.05;;
25237;SDS011;13185;50.872;5.306;2023-09-30T11:03:32;11.18;;;7.13;;
25237;SDS011;13185;50.872;5.306;2023-09-30T11:05:58;8.45;;;6.88;;
25237;SDS011;13185;50.872;5.306;2023-09-30T11:08:24;11.75;;;7.43;;
25237;SDS011;13185;50.872;5.306;2023-09-30T11:10:55;11.75;;;7.30;;
25237;SDS011;13185;50.872;5.306;2023-09-30T11:13:21;11.52;;;6.28;;
25237;SDS011;13185;50.872;5.306;2023-09-30T11:15:47;8.68;;;6.47;;
25237;SDS011;13185;50.872;5.306;2023-09-30T11:18:24;11.30;;;7.25;;
25237;SDS011;13185;50.872;5.306;2023-09-30T11:20:49;10.40;;;6.85;;
25237;SDS011;13185;50.872;5.306;2023-09-30T11:23:15;9.52;;;6.60;;
25237;SDS011;13185;50.872;5.306;2023-09-30T11:28:14;11.45;;;6.20;;
25237;SDS011;13185;50.872;5.306;2023-09-30T11:30:53;9.93;;;6.28;;
25237;SDS011;13185;50.872;5.306;2023-09-30T11:33:19;8.88;;;5.78;;
25237;SDS011;13185;50.872;5.306;2023-09-30T11:36:00;9.65;;;5.68;;
25237;SDS011;13185;50.872;5.306;2023-09-30T11:38:30;10.50;;;6.40;;
25237;SDS011;13185;50.872;5.306;2023-09-30T11:41:06;15.23;;;7.97;;
25237;SDS011;13185;50.872;5.306;2023-09-30T11:43:32;7.63;;;6.20;;
25237;SDS011;13185;50.872;5.306;2023-09-30T11:48:34;9.20;;;6.15;;
25237;SDS011;13185;50.872;5.306;2023-09-30T11:51:01;8.85;;;5.47;;
25237;SDS011;13185;50.872;5.306;2023-09-30T11:53:30;9.95;;;5.45;;
25237;SDS011;13185;50.872;5.306;2023-09-30T11:55:59;10.35;;;5.75;;
25237;SDS011;13185;50.872;5.306;2023-09-30T11:58:27;6.82;;;5.25;;
25237;SDS011;13185;50.872;5.306;2023-09-30T12:00:53;7.18;;;4.82;;
25237;SDS011;13185;50.872;5.306;2023-09-30T12:03:19;8.18;;;5.05;;
25237;SDS011;13185;50.872;5.306;2023-09-30T12:05:46;8.25;;;5.25;;
25237;SDS011;13185;50.872;5.306;2023-09-30T12:08:11;8.35;;;5.35;;
25237;SDS011;13185;50.872;5.306;2023-09-30T12:10:37;9.10;;;5.25;;
25237;SDS011;13185;50.872;5.306;2023-09-30T12:13:02;7.22;;;4.82;;
25237;SDS011;13185;50.872;5.306;2023-09-30T12:15:28;10.63;;;4.82;;
25237;SDS011;13185;50.872;5.306;2023-09-30T12:17:54;6.93;;;4.47;;
25237;SDS011;13185;50.872;5.306;2023-09-30T12:20:19;5.97;;;3.67;;
25237;SDS011;13185;50.872;5.306;2023-09-30T12:22:45;5.20;;;3.67;;
25237;SDS011;13185;50.872;5.306;2023-09-30T12:25:11;6.20;;;4.03;;
25237;SDS011;13185;50.872;5.306;2023-09-30T12:27:36;7.15;;;3.80;;
25237;SDS011;13185;50.872;5.306;2023-09-30T12:30:05;7.68;;;3.63;;
25237;SDS011;13185;50.872;5.306;2023-09-30T12:32:31;6.53;;;3.20;;
25237;SDS011;13185;50.872;5.306;2023-09-30T12:34:57;5.38;;;3.30;;
25237;SDS011;13185;50.872;5.306;2023-09-30T12:37:23;7.78;;;3.45;;
25237;SDS011;13185;50.872;5.306;2023-09-30T12:39:48;7.63;;;3.10;;
25237;SDS011;13185;50.872;5.306;2023-09-30T12:42:14;7.60;;;2.95;;
25237;SDS011;13185;50.872;5.306;2023-09-30T12:44:41;5.57;;;3.30;;
25237;SDS011;13185;50.872;5.306;2023-09-30T12:47:06;4.82;;;3.03;;
25237;SDS011;13185;50.872;5.306;2023-09-30T12:49:32;4.75;;;2.97;;
25237;SDS011;13185;50.872;5.306;2023-09-30T12:51:57;6.15;;;2.92;;
25237;SDS011;13185;50.872;5.306;2023-09-30T12:54:24;5.28;;;2.90;;
25237;SDS011;13185;50.872;5.306;2023-09-30T12:56:50;6.13;;;3.40;;
25237;SDS011;13185;50.872;5.306;2023-09-30T12:59:16;6.30;;;2.88;;
25237;SDS011;13185;50.872;5.306;2023-09-30T13:01:43;4.72;;;3.00;;
25237;SDS011;13185;50.872;5.306;2023-09-30T13:04:09;6.00;;;2.83;;
25237;SDS011;13185;50.872;5.306;2023-09-30T13:06:34;6.70;;;3.65;;
25237;SDS011;13185;50.872;5.306;2023-09-30T13:09:01;7.13;;;3.03;;
25237;SDS011;13185;50.872;5.306;2023-09-30T13:11:29;6.32;;;2.95;;
25237;SDS011;13185;50.872;5.306;2023-09-30T13:13:55;6.30;;;3.35;;
25237;SDS011;13185;50.872;5.306;2023-09-30T13:16:20;4.80;;;2.47;;
25237;SDS011;13185;50.872;5.306;2023-09-30T13:18:47;5.00;;;2.35;;
25237;SDS011;13185;50.872;5.306;2023-09-30T13:21:13;5.07;;;2.67;;
25237;SDS011;13185;50.872;5.306;2023-09-30T13:23:38;6.72;;;3.05;;
25237;SDS011;13185;50.872;5.306;2023-09-30T13:26:04;5.85;;;2.65;;
25237;SDS011;13185;50.872;5.306;2023-09-30T13:28:30;4.28;;;2.42;;
25237;SDS011;13185;50.872;5.306;2023-09-30T13:30:55;4.72;;;2.58;;
25237;SDS011;13185;50.872;5.306;2023-09-30T13:33:24;5.78;;;3.03;;
25237;SDS011;13185;50.872;5.306;2023-09-30T13:35:49;5.53;;;3.03;;
25237;SDS011;13185;50.872;5.306;2023-09-30T13:38:15;7.18;;;2.70;;
25237;SDS011;13185;50.872;5.306;2023-09-30T13:40:44;5.38;;;2.90;;
25237;SDS011;13185;50.872;5.306;2023-09-30T13:43:11;4.43;;;2.40;;
25237;SDS011;13185;50.872;5.306;2023-09-30T13:45:36;4.13;;;2.47;;
25237;SDS011;13185;50.872;5.306;2023-09-30T13:48:02;3.97;;;2.38;;
25237;SDS011;13185;50.872;5.306;2023-09-30T13:50:28;5.10;;;2.38;;
25237;SDS011;13185;50.872;5.306;2023-09-30T13:52:53;4.00;;;2.35;;
25237;SDS011;13185;50.872;5.306;2023-09-30T13:55:19;4.25;;;2.55;;
25237;SDS011;13185;50.872;5.306;2023-09-30T13:57:45;4.50;;;2.53;;
25237;SDS011;13185;50.872;5.306;2023-09-30T14:00:11;7.38;;;3.20;;
25237;SDS011;13185;50.872;5.306;2023-09-30T14:02:38;4.78;;;2.70;;
25237;SDS011;13185;50.872;5.306;2023-09-30T14:05:04;4.68;;;2.72;;
25237;SDS011;13185;50.872;5.306;2023-09-30T14:07:33;3.95;;;2.30;;
25237;SDS011;13185;50.872;5.306;2023-09-30T14:09:59;3.28;;;2.55;;
25237;SDS011;13185;50.872;5.306;2023-09-30T14:12:25;10.32;;;3.10;;
25237;SDS011;13185;50.872;5.306;2023-09-30T14:14:50;4.82;;;2.80;;
25237;SDS011;13185;50.872;5.306;2023-09-30T14:17:17;5.18;;;2.65;;
25237;SDS011;13185;50.872;5.306;2023-09-30T14:19:43;4.60;;;2.60;;
25237;SDS011;13185;50.872;5.306;2023-09-30T14:22:09;6.38;;;2.83;;
25237;SDS011;13185;50.872;5.306;2023-09-30T14:24:35;4.43;;;3.03;;
25237;SDS011;13185;50.872;5.306;2023-09-30T14:27:01;6.30;;;2.85;;
25237;SDS011;13185;50.872;5.306;2023-09-30T14:29:28;5.43;;;2.88;;
25237;SDS011;13185;50.872;5.306;2023-09-30T14:31:54;5.97;;;2.47;;
25237;SDS011;13185;50.872;5.306;2023-09-30T14:34:20;5.20;;;2.85;;
25237;SDS011;13185;50.872;5.306;2023-09-30T14:36:45;4.90;;;2.55;;
25237;SDS011;13185;50.872;5.306;2023-09-30T14:39:12;4.68;;;2.53;;
25237;SDS011;13185;50.872;5.306;2023-09-30T14:41:38;6.25;;;2.85;;
25237;SDS011;13185;50.872;5.306;2023-09-30T14:44:04;4.65;;;3.08;;
25237;SDS011;13185;50.872;5.306;2023-09-30T14:46:33;6.78;;;3.38;;
25237;SDS011;13185;50.872;5.306;2023-09-30T14:48:59;4.65;;;2.78;;
25237;SDS011;13185;50.872;5.306;2023-09-30T14:51:25;5.00;;;2.80;;
25237;SDS011;13185;50.872;5.306;2023-09-30T14:53:50;6.10;;;2.95;;
25237;SDS011;13185;50.872;5.306;2023-09-30T14:56:17;4.60;;;2.83;;
25237;SDS011;13185;50.872;5.306;2023-09-30T14:58:44;4.88;;;2.67;;
25237;SDS011;13185;50.872;5.306;2023-09-30T15:01:10;3.63;;;2.60;;
25237;SDS011;13185;50.872;5.306;2023-09-30T15:03:36;4.88;;;2.67;;
25237;SDS011;13185;50.872;5.306;2023-09-30T15:06:04;5.05;;;2.83;;